Time;durP1;ratioP1;P1;durP2;ratioP2;P2;SDS_P1;SDS_P2;PMS_P1;PMS_P2;Temp;Humidity;BMP_temperature;BMP_pressure;BME280_temperature;BME280_humidity;BME280_pressure;Samples;Min_cycle;Max_cycle;Signal;HPM_P1;HPM_P2
2022/03/31 00:00:57;;;;;;;7.60;3.25;;;;;;;-2.04;58.05;100675.02;1681387;84;21760;-86
2022/03/31 00:03:26;;;;;;;11.18;3.10;;;;;;;-2.05;58.04;100677.08;1705170;84;21514;-86
2022/03/31 00:05:53;;;;;;;8.30;3.50;;;;;;;-2.07;58.05;100681.23;1682007;84;21118;-86
2022/03/31 00:08:23;;;;;;;18.42;5.15;;;;;;;-2.10;58.09;100674.17;1703184;84;21113;-86
2022/03/31 00:10:53;;;;;;;15.40;5.35;;;;;;;-2.11;58.21;100676.63;1705280;84;21107;-86
2022/03/31 00:13:27;;;;;;;15.85;4.45;;;;;;;-2.13;58.25;100669.18;1684873;84;21902;-86
2022/03/31 00:15:55;;;;;;;13.28;4.08;;;;;;;-2.16;58.33;100670.75;1705032;84;21039;-85
2022/03/31 00:18:25;;;;;;;11.45;3.70;;;;;;;-2.17;58.40;100683.12;1699941;84;21094;-85
2022/03/31 00:20:51;;;;;;;11.15;3.58;;;;;;;-2.21;58.42;100672.48;1689784;84;21579;-84
2022/03/31 00:23:18;;;;;;;11.75;4.17;;;;;;;-2.24;58.47;100671.84;1704876;83;21015;-85
2022/03/31 00:25:44;;;;;;;10.80;3.72;;;;;;;-2.35;58.56;100663.33;1704500;83;21729;-86
2022/03/31 00:28:11;;;;;;;17.42;5.15;;;;;;;-2.25;58.62;100675.59;1704535;84;21584;-86
2022/03/31 00:30:38;;;;;;;13.62;4.40;;;;;;;-2.27;58.63;100678.44;1676285;84;21088;-87
2022/03/31 00:33:05;;;;;;;10.80;4.08;;;;;;;-2.31;58.67;100676.02;1676179;84;21074;-86
2022/03/31 00:35:31;;;;;;;10.48;3.72;;;;;;;-2.32;58.71;100675.94;1702095;84;21102;-86
2022/03/31 00:37:58;;;;;;;9.73;3.72;;;;;;;-2.33;58.78;100676.30;1715784;83;21750;-86
2022/03/31 00:40:25;;;;;;;11.20;4.28;;;;;;;-2.35;58.83;100672.34;1697772;83;21101;-86
2022/03/31 00:42:55;;;;;;;12.63;3.83;;;;;;;-2.36;58.84;100676.98;1718030;83;21500;-86
2022/03/31 00:45:28;;;;;;;11.85;4.28;;;;;;;-2.38;58.89;100672.51;1717974;82;21097;-85
2022/03/31 00:47:55;;;;;;;15.70;6.05;;;;;;;-2.39;58.96;100674.16;1705936;83;21089;-85
2022/03/31 00:50:22;;;;;;;15.43;7.30;;;;;;;-2.41;59.02;100668.40;1673024;83;21927;-86
2022/03/31 00:52:49;;;;;;;18.57;7.08;;;;;;;-2.42;58.99;100666.59;1698687;83;21085;-87
2022/03/31 00:55:18;;;;;;;21.05;9.80;;;;;;;-2.43;59.07;100666.98;1718216;82;21073;-87
2022/03/31 00:57:45;;;;;;;14.23;5.60;;;;;;;-2.45;59.09;100666.38;1718072;83;21547;-86
2022/03/31 01:00:15;;;;;;;12.98;4.42;;;;;;;-2.46;59.12;100664.56;1701516;82;21034;-88
2022/03/31 01:02:44;;;;;;;15.93;4.15;;;;;;;-2.49;59.15;100663.95;1708296;82;21861;-86
2022/03/31 01:05:12;;;;;;;13.28;4.45;;;;;;;-2.52;59.17;100666.30;1704466;82;21085;-87
2022/03/31 01:07:40;;;;;;;15.58;4.15;;;;;;;-2.53;59.29;100663.23;1701196;83;21038;-87
2022/03/31 01:10:08;;;;;;;12.53;4.90;;;;;;;-2.56;59.36;100665.16;1678836;84;21521;-87
2022/03/31 01:12:37;;;;;;;14.58;3.47;;;;;;;-2.59;59.34;100664.03;1707758;83;21151;-86
2022/03/31 01:15:16;;;;;;;7.58;3.02;;;;;;;-2.60;59.43;100661.84;1687819;82;21830;-86
2022/03/31 01:17:45;;;;;;;16.55;3.25;;;;;;;-2.60;59.51;100660.96;1707765;83;21500;-85
2022/03/31 01:20:20;;;;;;;6.53;2.60;;;;;;;-2.62;59.57;100664.70;1701433;83;21192;-86
2022/03/31 01:22:47;;;;;;;7.30;2.67;;;;;;;-2.61;59.61;100657.50;1679499;84;21212;-86
2022/03/31 01:25:15;;;;;;;4.85;2.62;;;;;;;-2.60;59.66;100658.39;1704673;84;21062;-85
2022/03/31 01:27:44;;;;;;;3.87;2.27;;;;;;;-2.60;59.73;100651.95;1707838;82;21771;-85
2022/03/31 01:30:13;;;;;;;4.92;2.00;;;;;;;-2.60;59.72;100660.56;1707551;82;21085;-86
2022/03/31 01:32:41;;;;;;;6.78;2.35;;;;;;;-2.60;59.78;100654.13;1707501;82;21117;-86
2022/03/31 01:35:09;;;;;;;3.37;1.92;;;;;;;-2.59;59.78;100657.59;1707561;82;21101;-85
2022/03/31 01:37:36;;;;;;;2.92;1.55;;;;;;;-2.58;59.77;100661.57;1696010;82;21706;-85
2022/03/31 01:40:04;;;;;;;5.90;2.20;;;;;;;-2.60;59.79;100655.41;1688671;83;21860;-85
2022/03/31 01:42:31;;;;;;;4.78;2.02;;;;;;;-2.59;59.82;100663.66;1688783;83;21119;-85
2022/03/31 01:44:58;;;;;;;7.95;2.12;;;;;;;-2.60;59.84;100661.84;1671875;84;21561;-85
2022/03/31 01:47:26;;;;;;;8.53;1.57;;;;;;;-2.60;59.92;100657.09;1661654;84;21063;-85
2022/03/31 01:49:55;;;;;;;3.92;1.80;;;;;;;-2.59;59.95;100656.30;1676525;84;21091;-85
2022/03/31 01:52:22;;;;;;;4.58;1.80;;;;;;;-2.60;59.96;100655.41;1689311;83;22553;-85
2022/03/31 01:54:49;;;;;;;3.37;1.80;;;;;;;-2.61;60.02;100654.00;1688950;83;21051;-85
2022/03/31 01:57:16;;;;;;;4.42;2.00;;;;;;;-2.62;60.10;100651.82;1687597;83;21055;-86
2022/03/31 01:59:43;;;;;;;10.98;2.58;;;;;;;-2.63;60.16;100651.70;1671905;84;21076;-86
2022/03/31 02:02:12;;;;;;;5.87;1.80;;;;;;;-2.67;60.18;100650.56;1689416;83;21639;-86
2022/03/31 02:04:41;;;;;;;3.27;1.80;;;;;;;-2.68;60.27;100659.09;1661548;85;21873;-87
2022/03/31 02:07:09;;;;;;;2.85;1.65;;;;;;;-2.69;60.31;100658.97;1679128;84;21070;-86
2022/03/31 02:09:35;;;;;;;4.42;1.77;;;;;;;-2.72;60.43;100653.58;1669909;84;21059;-86
2022/03/31 02:12:03;;;;;;;4.78;1.82;;;;;;;-2.74;60.51;100652.16;1640800;85;21069;-87
2022/03/31 02:14:37;;;;;;;3.70;1.87;;;;;;;-2.76;60.56;100650.78;1661320;85;21596;-87
2022/03/31 02:17:01;;;;;;;6.53;2.90;;;;;;;-2.77;60.65;100647.69;1670176;84;21779;-86
2022/03/31 02:19:27;;;;;;;5.28;1.60;;;;;;;-2.76;60.71;100651.15;1672968;83;21302;-87
2022/03/31 02:21:57;;;;;;;4.78;1.95;;;;;;;-2.75;60.78;100652.56;1661112;85;21898;-87
2022/03/31 02:24:24;;;;;;;6.40;2.22;;;;;;;-2.77;60.82;100641.64;1642615;87;21603;-89
2022/03/31 02:26:51;;;;;;;3.77;2.00;;;;;;;-2.79;60.81;100645.39;1732175;82;21042;-88
2022/03/31 02:29:19;;;;;;;5.15;2.22;;;;;;;-2.79;60.83;100641.52;1718794;82;22550;-86
2022/03/31 02:31:47;;;;;;;5.20;2.77;;;;;;;-2.80;60.85;100649.12;1723215;82;20991;-86
2022/03/31 02:34:17;;;;;;;6.37;2.70;;;;;;;-2.80;60.83;100650.41;1714715;82;21159;-87
2022/03/31 02:36:44;;;;;;;7.85;2.17;;;;;;;-2.80;60.85;100648.73;1732489;82;21232;-88
2022/03/31 02:39:11;;;;;;;5.50;2.70;;;;;;;-2.80;60.82;100648.73;1731983;82;21553;-88
2022/03/31 02:41:43;;;;;;;11.48;5.12;;;;;;;-2.81;60.83;100646.95;1713250;82;21836;-87
2022/03/31 02:44:09;;;;;;;4.78;2.50;;;;;;;-2.81;60.81;100649.93;1710249;82;21598;-88
2022/03/31 02:46:36;;;;;;;6.90;1.90;;;;;;;-2.81;60.79;100646.06;1732062;82;21476;-87
2022/03/31 02:49:04;;;;;;;7.55;2.17;;;;;;;-2.81;60.75;100645.66;1709887;82;21015;-86
2022/03/31 02:51:30;;;;;;;4.72;1.72;;;;;;;-2.80;60.74;100649.12;1717767;82;21011;-86
2022/03/31 02:56:45;;;;;;;9.33;1.72;;;;;;;-2.80;60.66;100651.70;1731514;81;21538;-86
2022/03/31 02:59:15;;;;;;;5.58;2.33;;;;;;;-2.80;60.62;100650.02;1727485;82;20995;-86
2022/03/31 03:01:44;;;;;;;5.75;2.05;;;;;;;-2.79;60.60;100647.96;1685241;82;21044;-87
2022/03/31 03:04:11;;;;;;;6.53;2.15;;;;;;;-2.79;60.54;100646.67;1725989;82;21057;-88
2022/03/31 03:06:38;;;;;;;10.32;2.30;;;;;;;-2.79;60.54;100647.96;1726514;82;22537;-85
2022/03/31 03:09:05;;;;;;;2.92;1.82;;;;;;;-2.77;60.54;100649.38;1689800;84;21032;-87
2022/03/31 03:11:34;;;;;;;4.65;2.25;;;;;;;-2.77;60.48;100646.80;1669953;84;21629;-85
2022/03/31 03:14:01;;;;;;;8.25;2.37;;;;;;;-2.77;60.53;100648.09;1676635;83;21095;-86
2022/03/31 03:16:28;;;;;;;10.43;2.70;;;;;;;-2.77;60.52;100654.13;1662107;85;21616;-85
2022/03/31 03:18:54;;;;;;;6.67;2.95;;;;;;;-2.76;60.50;100648.58;1641789;86;21077;-85
2022/03/31 03:21:21;;;;;;;6.42;3.30;;;;;;;-2.75;60.52;100647.81;1660138;85;21083;-85
2022/03/31 03:23:48;;;;;;;7.00;3.12;;;;;;;-2.74;60.52;100656.03;1642361;86;21086;-86
2022/03/31 03:26:16;;;;;;;6.47;3.08;;;;;;;-2.74;60.50;100648.30;1661489;84;21131;-86
2022/03/31 03:28:43;;;;;;;8.05;3.67;;;;;;;-2.71;60.51;100655.38;1687322;84;21087;-86
2022/03/31 03:31:11;;;;;;;8.13;3.52;;;;;;;-2.69;60.49;100653.42;1675138;83;21765;-85
2022/03/31 03:34:01;;;;;;;7.80;3.12;;;;;;;-2.69;60.48;100656.39;1647209;85;21087;-85
2022/03/31 03:36:27;;;;;;;8.88;2.95;;;;;;;-2.68;60.45;100654.30;1675164;85;21093;-85
2022/03/31 03:38:53;;;;;;;6.15;2.95;;;;;;;-2.69;60.45;100652.12;1665020;84;21164;-85
2022/03/31 03:41:20;;;;;;;5.70;3.42;;;;;;;-2.68;60.42;100650.08;1672720;85;21099;-84
2022/03/31 03:43:47;;;;;;;9.55;3.45;;;;;;;-2.70;60.46;100654.22;1679114;84;22611;-84
2022/03/31 03:46:14;;;;;;;9.93;3.25;;;;;;;-2.69;60.47;100656.00;1673731;83;21131;-87
2022/03/31 03:48:40;;;;;;;9.35;3.22;;;;;;;-2.70;60.47;100658.08;1687341;84;21031;-89
2022/03/31 03:51:09;;;;;;;9.25;4.03;;;;;;;-2.69;60.49;100657.69;1706178;83;21152;-88
2022/03/31 03:53:36;;;;;;;8.35;3.52;;;;;;;-2.72;60.51;100658.36;1676867;83;21041;-88
2022/03/31 03:56:02;;;;;;;6.17;3.40;;;;;;;-2.73;60.55;100653.97;1715646;83;21751;-92
2022/03/31 03:58:31;;;;;;;11.20;5.00;;;;;;;-2.74;60.52;100658.61;1670646;84;21071;-91
2022/03/31 04:00:57;;;;;;;6.33;3.50;;;;;;;-2.77;60.53;100655.81;1652677;85;21122;-93
2022/03/31 04:03:24;;;;;;;12.85;3.70;;;;;;;-2.78;60.53;100660.44;1636965;86;21541;-93
2022/03/31 04:05:51;;;;;;;6.55;2.77;;;;;;;-2.80;60.54;100660.32;1642809;85;21520;-92
2022/03/31 04:08:21;;;;;;;7.35;3.05;;;;;;;-2.79;60.53;100663.42;1653260;86;21984;-94
2022/03/31 04:10:48;;;;;;;12.80;4.42;;;;;;;-2.77;60.55;100666.12;1637995;86;21027;-87
2022/03/31 04:13:15;;;;;;;11.18;4.12;;;;;;;-2.77;60.55;100669.58;1648138;86;21192;-88
2022/03/31 04:15:42;;;;;;;10.50;3.92;;;;;;;-2.76;60.52;100673.05;1624907;87;21022;-92
2022/03/31 04:18:09;;;;;;;9.20;3.95;;;;;;;-2.78;60.48;100667.81;1625875;86;21134;-90
2022/03/31 04:20:36;;;;;;;11.93;3.30;;;;;;;-2.78;60.46;100670.38;1620003;85;21612;-84
2022/03/31 04:23:03;;;;;;;7.58;3.83;;;;;;;-2.80;60.41;100668.05;1633549;86;21015;-90
2022/03/31 04:25:29;;;;;;;7.78;3.37;;;;;;;-2.83;60.46;100673.39;1651176;86;21121;-91
2022/03/31 04:27:59;;;;;;;8.73;3.40;;;;;;;-2.86;60.50;100669.27;1650425;86;21067;-86
2022/03/31 04:30:26;;;;;;;9.73;3.42;;;;;;;-2.87;60.58;100667.46;1650748;86;21094;-88
2022/03/31 04:32:53;;;;;;;12.40;3.25;;;;;;;-2.87;60.62;100668.38;1680477;83;21796;-88
2022/03/31 04:35:20;;;;;;;7.47;3.20;;;;;;;-2.84;60.69;100671.58;1669249;85;21104;-91
2022/03/31 04:37:47;;;;;;;9.08;3.90;;;;;;;-2.79;60.75;100675.02;1675439;84;21552;-89
2022/03/31 04:40:14;;;;;;;15.13;4.08;;;;;;;-2.74;60.74;100678.84;1655182;85;21088;-88
2022/03/31 04:42:41;;;;;;;16.73;4.92;;;;;;;-2.66;60.69;100682.41;1663109;86;21175;-89
2022/03/31 04:45:09;;;;;;;16.45;6.67;;;;;;;-2.56;60.67;100685.78;1663945;86;21769;-87
2022/03/31 04:47:36;;;;;;;14.98;5.15;;;;;;;-2.13;61.04;100686.83;1664155;84;21058;-90
2022/03/31 04:50:05;;;;;;;10.90;4.60;;;;;;;-1.57;60.88;100679.77;1699213;83;21054;-91
2022/03/31 04:52:31;;;;;;;15.88;5.65;;;;;;;-0.85;60.76;100677.49;1688706;85;21059;-93
2022/03/31 04:54:58;;;;;;;16.73;5.15;;;;;;;0.29;60.92;100673.87;1669340;85;21202;-86
2022/03/31 04:57:25;;;;;;;12.05;5.35;;;;;;;1.35;59.94;100672.70;1688038;85;21829;-90
2022/03/31 04:59:54;;;;;;;15.72;5.72;;;;;;;2.26;59.13;100667.23;1688249;83;21536;-86
2022/03/31 05:02:58;;;;;;;;;;;;;;;;;;;;;
2022/03/31 05:05:49;;;;;;;15.53;4.97;;;;;;;2.88;56.70;100660.26;1675974;84;21524;-92
2022/03/31 05:08:37;;;;;;;22.22;6.35;;;;;;;2.61;55.23;100666.12;1650446;84;21079;-90
2022/03/31 05:10:58;;;;;;;21.62;6.42;;;;;;;2.26;55.06;100668.95;1548565;90;21591;-89
2022/03/31 05:13:25;;;;;;;12.95;5.30;;;;;;;2.09;54.86;100671.88;1652812;85;21642;-91
2022/03/31 05:15:52;;;;;;;14.60;5.45;;;;;;;1.89;54.63;100675.91;1636290;87;21019;-93
2022/03/31 05:18:19;;;;;;;13.45;5.15;;;;;;;1.75;54.65;100680.30;1661220;86;21571;-90
2022/03/31 05:20:46;;;;;;;16.57;5.15;;;;;;;1.64;54.55;100685.25;1657251;85;21140;-89
2022/03/31 05:23:14;;;;;;;16.23;4.87;;;;;;;1.51;54.63;100679.31;1682819;85;21451;-88
2022/03/31 05:25:41;;;;;;;11.93;4.72;;;;;;;1.43;54.48;100680.56;1658336;85;21074;-89
2022/03/31 05:28:09;;;;;;;12.60;4.15;;;;;;;1.34;54.53;100689.97;1683904;85;21250;-87
2022/03/31 05:30:36;;;;;;;10.65;4.65;;;;;;;1.32;54.54;100691.58;1683258;85;21114;-87
2022/03/31 05:33:03;;;;;;;9.25;4.40;;;;;;;1.31;54.55;100687.59;1701493;83;21027;-90
2022/03/31 05:35:29;;;;;;;11.80;4.25;;;;;;;1.29;54.51;100695.27;1679143;84;22628;-92
2022/03/31 05:37:56;;;;;;;8.05;4.15;;;;;;;1.28;54.46;100695.20;1678992;85;21024;-87
2022/03/31 05:40:23;;;;;;;8.78;4.08;;;;;;;1.22;54.43;100698.31;1677235;85;21050;-87
2022/03/31 05:42:50;;;;;;;14.18;4.35;;;;;;;1.16;54.40;100694.02;1667366;84;21160;-87
2022/03/31 05:45:17;;;;;;;12.23;4.12;;;;;;;1.11;54.43;100698.05;1661067;86;21571;-87
2022/03/31 05:47:44;;;;;;;10.13;4.60;;;;;;;1.07;54.45;100697.34;1678456;85;22599;-87
2022/03/31 05:50:13;;;;;;;12.53;5.95;;;;;;;1.03;54.36;100698.84;1678341;85;21051;-87
2022/03/31 05:52:42;;;;;;;14.20;6.17;;;;;;;0.96;54.40;100701.87;1660086;85;21054;-86
2022/03/31 05:55:10;;;;;;;21.23;7.80;;;;;;;0.89;54.40;100704.87;1661697;85;21094;-87
2022/03/31 05:57:37;;;;;;;21.85;8.30;;;;;;;0.85;54.46;100703.78;1677230;85;21023;-92
2022/03/31 06:00:06;;;;;;;19.23;8.03;;;;;;;0.82;54.48;100706.58;1677681;85;21782;-92
2022/03/31 06:02:33;;;;;;;24.35;8.80;;;;;;;0.79;54.50;100708.59;1677332;85;21047;-92
2022/03/31 06:04:59;;;;;;;26.75;11.85;;;;;;;0.78;54.65;100709.38;1663649;85;21054;-87
2022/03/31 06:07:26;;;;;;;27.60;13.25;;;;;;;0.82;54.63;100715.65;1664748;85;21019;-91
2022/03/31 06:09:53;;;;;;;26.00;10.98;;;;;;;0.85;54.67;100717.16;1661558;85;21050;-92
2022/03/31 06:12:19;;;;;;;19.23;8.45;;;;;;;0.84;54.55;100712.75;1662966;85;21761;-91
2022/03/31 06:14:46;;;;;;;20.30;8.23;;;;;;;0.82;54.54;100716.95;1653637;85;21618;-92
2022/03/31 06:17:15;;;;;;;13.25;5.67;;;;;;;0.80;54.57;100717.25;1628158;86;21624;-91
2022/03/31 06:19:44;;;;;;;10.93;4.35;;;;;;;0.83;54.69;100723.53;1660087;86;21054;-92
2022/03/31 06:22:11;;;;;;;10.20;4.47;;;;;;;0.85;54.61;100723.22;1678211;83;21958;-92
2022/03/31 06:24:40;;;;;;;13.00;4.78;;;;;;;0.89;54.67;100726.91;1678932;84;21940;-91
2022/03/31 06:27:08;;;;;;;12.93;5.08;;;;;;;0.94;54.75;100725.52;1678815;84;21656;-91
2022/03/31 06:29:35;;;;;;;8.03;3.83;;;;;;;1.02;54.77;100727.28;1645062;86;21062;-91
2022/03/31 06:32:02;;;;;;;8.98;3.75;;;;;;;1.07;54.56;100729.37;1677381;85;21070;-91
2022/03/31 06:34:29;;;;;;;7.78;3.20;;;;;;;1.13;54.46;100735.33;1684971;85;21113;-91
2022/03/31 06:36:56;;;;;;;6.37;2.25;;;;;;;1.18;54.35;100731.30;1686122;84;22474;-92
2022/03/31 06:39:23;;;;;;;5.85;2.67;;;;;;;1.25;53.92;100732.59;1686404;84;21481;-91
2022/03/31 06:42:30;;;;;;;3.17;1.85;;;;;;;1.31;53.32;100742.97;1686604;84;21327;-92
2022/03/31 06:44:57;;;;;;;3.60;2.42;;;;;;;1.35;52.70;100728.08;1687606;83;21078;-92
2022/03/31 06:47:28;;;;;;;4.28;2.67;;;;;;;1.37;52.53;100734.66;1643399;85;21081;-91
2022/03/31 06:49:56;;;;;;;6.17;2.70;;;;;;;1.42;52.41;100736.23;1670687;84;21789;-91
2022/03/31 06:52:23;;;;;;;6.10;2.27;;;;;;;1.45;52.44;100735.13;1664489;85;21085;-90
2022/03/31 06:54:51;;;;;;;4.05;2.22;;;;;;;1.49;52.21;100739.28;1660652;85;21073;-92
2022/03/31 06:57:20;;;;;;;6.65;2.77;;;;;;;1.48;52.03;100731.03;1660285;86;21033;-91
2022/03/31 06:59:53;;;;;;;5.33;2.52;;;;;;;1.53;51.99;100737.78;1687169;85;21132;-91
2022/03/31 07:02:27;;;;;;;6.45;1.80;;;;;;;1.47;51.80;100725.33;1667434;85;21757;-90
2022/03/31 07:04:55;;;;;;;6.92;1.87;;;;;;;1.59;51.76;100732.95;1669386;84;21081;-89
2022/03/31 07:07:24;;;;;;;6.75;2.17;;;;;;;1.64;51.82;100739.33;1703270;83;21070;-90
2022/03/31 07:09:53;;;;;;;6.80;2.17;;;;;;;1.68;51.63;100737.81;1673099;84;21164;-91
2022/03/31 07:12:20;;;;;;;6.40;2.27;;;;;;;1.69;51.33;100736.61;1669578;84;21626;-91
2022/03/31 07:14:49;;;;;;;10.28;2.85;;;;;;;1.69;51.30;100743.10;1670526;85;21926;-92
2022/03/31 07:17:17;;;;;;;5.12;2.12;;;;;;;1.72;51.12;100737.19;1699637;83;21069;-87
2022/03/31 07:19:44;;;;;;;4.90;2.02;;;;;;;1.71;50.70;100740.20;1677154;84;21128;-91
2022/03/31 07:22:12;;;;;;;7.37;2.45;;;;;;;1.70;50.62;100742.69;1669210;86;21187;-89
2022/03/31 07:24:42;;;;;;;3.20;1.98;;;;;;;1.75;50.40;100745.17;1627942;86;21043;-87
2022/03/31 07:27:09;;;;;;;3.50;2.25;;;;;;;1.79;50.16;100742.36;1650558;85;22024;-87
2022/03/31 07:29:39;;;;;;;8.45;2.40;;;;;;;1.81;50.27;100744.23;1686310;85;21034;-88
2022/03/31 07:32:08;;;;;;;9.25;2.20;;;;;;;1.87;50.39;100743.70;1669738;84;21546;-87
2022/03/31 07:34:36;;;;;;;5.53;2.20;;;;;;;1.94;50.21;100748.46;1663142;85;21131;-87
2022/03/31 07:37:08;;;;;;;3.65;2.17;;;;;;;1.97;50.14;100747.36;1687850;85;21206;-89
2022/03/31 07:39:41;;;;;;;6.58;2.02;;;;;;;1.99;49.87;100750.02;1674242;85;21943;-87
2022/03/31 07:42:08;;;;;;;7.78;2.58;;;;;;;1.98;49.88;100758.22;1682370;85;21066;-88
2022/03/31 07:44:39;;;;;;;7.28;2.75;;;;;;;1.99;49.39;100756.50;1650682;85;34810;-89
2022/03/31 07:47:07;;;;;;;6.30;2.42;;;;;;;2.01;49.44;100753.22;1650639;84;21079;-87
2022/03/31 07:49:37;;;;;;;6.70;2.12;;;;;;;2.05;49.52;100759.08;1686611;85;21571;-87
2022/03/31 07:52:10;;;;;;;3.65;2.05;;;;;;;2.07;49.57;100763.07;1686684;85;21715;-86
2022/03/31 07:54:50;;;;;;;4.83;2.08;;;;;;;2.05;49.65;100753.00;1686927;85;21141;-89
2022/03/31 07:57:19;;;;;;;9.95;2.37;;;;;;;2.07;49.56;100753.57;1687906;83;21085;-88
2022/03/31 07:59:48;;;;;;;8.65;2.22;;;;;;;2.10;49.38;100750.25;1677469;84;21034;-87
2022/03/31 08:02:21;;;;;;;4.53;2.17;;;;;;;2.16;49.47;100766.22;1680736;85;21061;-88
2022/03/31 08:04:50;;;;;;;5.83;2.15;;;;;;;2.20;49.09;100746.52;1687021;84;22687;-92
2022/03/31 08:07:20;;;;;;;4.08;2.10;;;;;;;2.14;48.92;100752.25;1685920;85;21132;-88
2022/03/31 08:09:51;;;;;;;4.83;2.10;;;;;;;2.09;49.00;100748.48;1666613;85;21043;-89
2022/03/31 08:12:21;;;;;;;7.37;2.50;;;;;;;2.09;48.99;100757.16;1675049;84;21067;-89
2022/03/31 08:14:50;;;;;;;4.00;2.25;;;;;;;2.11;48.99;100760.73;1632248;85;21090;-88
2022/03/31 08:17:20;;;;;;;6.62;2.33;;;;;;;2.09;48.77;100761.05;1669620;85;21946;-88
2022/03/31 08:19:51;;;;;;;7.58;2.25;;;;;;;2.11;48.66;100766.34;1688046;85;21630;-87
2022/03/31 08:22:19;;;;;;;4.00;2.58;;;;;;;2.18;48.86;100767.20;1664898;84;21105;-88
2022/03/31 08:24:49;;;;;;;12.88;2.80;;;;;;;2.23;48.68;100753.16;1656544;84;21462;-89
2022/03/31 08:27:17;;;;;;;7.08;2.08;;;;;;;2.31;48.82;100767.11;1687347;84;21065;-87
2022/03/31 08:29:46;;;;;;;3.83;2.05;;;;;;;2.41;48.60;100768.53;1670600;84;22622;-87
2022/03/31 08:32:15;;;;;;;4.17;2.40;;;;;;;2.41;48.40;100763.33;1687217;85;21089;-88
2022/03/31 08:34:48;;;;;;;8.10;2.35;;;;;;;2.37;48.21;100756.17;1658199;85;21065;-87
2022/03/31 08:37:18;;;;;;;7.85;2.83;;;;;;;2.40;48.30;100760.64;1647114;85;21081;-88
2022/03/31 08:39:45;;;;;;;6.22;3.05;;;;;;;2.48;48.30;100762.00;1634767;86;21070;-87
2022/03/31 08:42:15;;;;;;;6.40;2.80;;;;;;;2.55;48.14;100760.22;1643464;84;21825;-87
2022/03/31 08:44:42;;;;;;;8.80;3.27;;;;;;;2.64;48.17;100761.16;1615417;86;21098;-88
2022/03/31 08:47:11;;;;;;;12.82;3.33;;;;;;;2.70;47.97;100767.61;1650902;86;21174;-88
2022/03/31 08:49:44;;;;;;;5.65;3.12;;;;;;;2.74;47.89;100764.78;1640512;86;21082;-87
2022/03/31 08:52:12;;;;;;;4.37;2.50;;;;;;;2.76;47.81;100762.25;1625341;85;21098;-88
2022/03/31 08:54:41;;;;;;;4.92;3.17;;;;;;;2.76;47.42;100766.14;1624866;86;21840;-87
2022/03/31 08:57:09;;;;;;;6.72;3.15;;;;;;;2.77;47.40;100758.85;1628517;86;21027;-88
2022/03/31 08:59:41;;;;;;;3.98;2.85;;;;;;;2.81;47.28;100762.99;1625166;87;21073;-88
2022/03/31 09:02:24;;;;;;;5.70;3.08;;;;;;;2.85;47.17;100764.98;1654749;85;21093;-87
2022/03/31 09:05:11;;;;;;;7.40;3.08;;;;;;;2.81;47.15;100760.39;1625060;87;21109;-89
2022/03/31 09:08:00;;;;;;;9.68;3.15;;;;;;;2.80;47.25;100754.72;1666980;85;21899;-89
2022/03/31 09:10:47;;;;;;;8.15;3.00;;;;;;;2.85;47.05;100761.09;1668594;84;21110;-89
2022/03/31 09:13:40;;;;;;;6.00;2.92;;;;;;;2.89;47.11;100746.14;1652076;86;21125;-90
2022/03/31 09:16:06;;;;;;;6.37;3.72;;;;;;;2.96;47.17;100752.97;1650122;86;21121;-90
2022/03/31 09:18:36;;;;;;;11.03;4.37;;;;;;;3.00;47.19;100745.41;1650691;86;21652;-90
2022/03/31 09:21:06;;;;;;;7.33;3.90;;;;;;;3.00;47.20;100758.41;1636372;85;22612;-88
2022/03/31 09:23:46;;;;;;;8.45;4.08;;;;;;;3.01;47.11;100756.73;1651998;86;21078;-88
2022/03/31 09:26:15;;;;;;;7.35;4.30;;;;;;;3.02;47.29;100741.22;1636276;86;21604;-88
2022/03/31 09:28:45;;;;;;;5.70;3.35;;;;;;;3.17;47.40;100746.75;1649291;86;21131;-88
2022/03/31 09:31:12;;;;;;;7.47;4.12;;;;;;;3.30;47.27;100750.13;1651274;86;21106;-88
2022/03/31 09:33:47;;;;;;;8.50;3.55;;;;;;;3.45;47.31;100743.93;1651914;85;21774;-88
2022/03/31 09:36:17;;;;;;;8.98;4.20;;;;;;;3.65;47.37;100739.80;1651644;86;21094;-90
2022/03/31 09:39:03;;;;;;;8.85;4.40;;;;;;;3.76;47.10;100746.88;1628447;86;21102;-92
2022/03/31 09:41:32;;;;;;;7.42;5.00;;;;;;;3.76;47.07;100739.95;1636775;86;21185;-91
2022/03/31 09:44:01;;;;;;;7.80;4.45;;;;;;;3.74;47.04;100737.67;1630934;86;21082;-91
2022/03/31 09:46:38;;;;;;;10.63;4.45;;;;;;;3.64;46.99;100737.61;1661132;86;21756;-91
2022/03/31 09:49:17;;;;;;;6.33;4.12;;;;;;;3.60;46.86;100742.55;1662599;85;21090;-91
2022/03/31 09:51:46;;;;;;;9.28;4.20;;;;;;;3.62;46.99;100734.03;1643539;86;21476;-89
2022/03/31 09:54:13;;;;;;;6.42;4.20;;;;;;;3.63;47.00;100732.31;1634806;86;21035;-91
2022/03/31 09:56:40;;;;;;;11.08;3.85;;;;;;;3.70;46.41;100730.11;1658456;86;21125;-91
2022/03/31 09:59:12;;;;;;;11.25;4.17;;;;;;;3.88;46.52;100726.24;1643660;86;21785;-91
2022/03/31 10:01:39;;;;;;;8.70;4.62;;;;;;;4.10;46.63;100720.84;1646567;86;21122;-91
2022/03/31 10:04:06;;;;;;;12.28;4.75;;;;;;;4.12;46.31;100740.46;1611848;87;21102;-91
2022/03/31 10:06:41;;;;;;;12.23;4.35;;;;;;;4.03;46.10;100733.95;1637353;86;21205;-88
2022/03/31 10:09:10;;;;;;;6.17;3.60;;;;;;;4.07;46.08;100737.22;1687628;85;21111;-88
2022/03/31 10:11:46;;;;;;;8.75;4.47;;;;;;;4.06;46.04;100730.62;1662475;86;21842;-89
2022/03/31 10:14:35;;;;;;;7.12;4.00;;;;;;;3.95;46.00;100733.98;1659221;85;21057;-87
2022/03/31 10:17:06;;;;;;;10.48;4.22;;;;;;;3.72;45.56;100737.09;1658342;85;21067;-87
2022/03/31 10:19:35;;;;;;;7.65;4.20;;;;;;;3.52;45.85;100736.95;1638843;86;21032;-87
2022/03/31 10:22:07;;;;;;;12.47;4.40;;;;;;;3.48;46.05;100731.09;1658055;85;21145;-87
2022/03/31 10:24:46;;;;;;;8.80;4.53;;;;;;;3.45;46.04;100734.44;1656722;86;21808;-88
2022/03/31 10:27:29;;;;;;;7.35;4.37;;;;;;;3.42;46.13;100735.98;1651681;86;21035;-88
2022/03/31 10:29:57;;;;;;;7.83;4.35;;;;;;;3.41;46.08;100726.38;1641370;86;21097;-91
2022/03/31 10:32:25;;;;;;;9.45;5.20;;;;;;;3.45;46.15;100725.72;1697577;83;21552;-91
2022/03/31 10:34:54;;;;;;;6.33;4.95;;;;;;;3.49;45.99;100728.96;1717190;83;21075;-90
2022/03/31 10:37:37;;;;;;;12.13;6.03;;;;;;;3.47;46.04;100735.80;1688275;82;22734;-91
2022/03/31 10:40:08;;;;;;;6.10;4.53;;;;;;;3.52;46.34;100732.16;1688631;83;21529;-90
2022/03/31 10:42:34;;;;;;;8.10;5.03;;;;;;;3.59;46.16;100727.35;1679880;84;21087;-90
2022/03/31 10:45:13;;;;;;;7.00;5.08;;;;;;;3.60;45.98;100726.52;1696049;83;21178;-92
2022/03/31 10:47:41;;;;;;;7.78;5.33;;;;;;;3.54;45.84;100731.41;1708369;83;21114;-91
2022/03/31 10:50:11;;;;;;;6.92;4.97;;;;;;;3.53;45.78;100726.12;1688401;84;21773;-91
2022/03/31 10:52:38;;;;;;;11.70;4.92;;;;;;;3.53;45.85;100728.72;1683625;83;21683;-92
2022/03/31 10:55:14;;;;;;;7.05;4.62;;;;;;;3.48;45.46;100720.69;1688662;84;21088;-92
2022/03/31 10:57:44;;;;;;;8.73;4.90;;;;;;;3.43;45.35;100720.84;1688131;83;21136;-91
2022/03/31 11:00:17;;;;;;;8.68;4.75;;;;;;;3.44;45.42;100727.84;1688164;83;21844;-89
2022/03/31 11:02:52;;;;;;;7.90;4.70;;;;;;;3.40;45.38;100739.80;1693710;83;21914;-90
2022/03/31 11:05:17;;;;;;;7.35;5.00;;;;;;;3.39;45.39;100722.38;1716756;82;21647;-90
2022/03/31 11:07:43;;;;;;;7.87;5.00;;;;;;;3.41;45.31;100725.07;1679406;84;21695;-91
2022/03/31 11:10:12;;;;;;;8.55;5.12;;;;;;;3.39;45.33;100731.91;1696174;83;21103;-90
2022/03/31 11:12:39;;;;;;;8.33;4.92;;;;;;;3.40;44.98;100718.98;1705706;83;21744;-91
2022/03/31 11:15:13;;;;;;;8.00;4.80;;;;;;;3.38;45.02;100736.60;1704646;83;22431;-90
2022/03/31 11:17:42;;;;;;;11.78;5.37;;;;;;;3.37;45.11;100724.42;1704903;83;21081;-89
2022/03/31 11:20:21;;;;;;;6.12;4.17;;;;;;;3.36;45.14;100725.22;1711792;83;21064;-90
2022/03/31 11:22:51;;;;;;;7.10;4.78;;;;;;;3.36;44.93;100734.33;1687896;85;22010;-90
2022/03/31 11:25:18;;;;;;;8.80;4.65;;;;;;;3.31;44.88;100732.80;1708785;83;21056;-90
2022/03/31 11:27:46;;;;;;;6.87;4.80;;;;;;;3.34;45.02;100732.05;1673855;83;21794;-89
2022/03/31 11:30:18;;;;;;;8.73;5.20;;;;;;;3.37;44.86;100727.91;1672026;84;21048;-89
2022/03/31 11:32:45;;;;;;;10.23;4.70;;;;;;;3.39;44.75;100733.20;1675409;85;21161;-92
2022/03/31 11:35:14;;;;;;;7.00;5.00;;;;;;;3.42;44.80;100738.17;1654559;85;21141;-89
2022/03/31 11:38:00;;;;;;;16.77;5.33;;;;;;;3.40;44.85;100720.28;1647533;87;21113;-87
2022/03/31 11:40:40;;;;;;;11.20;5.03;;;;;;;3.45;45.10;100727.94;1647931;87;21808;-89
2022/03/31 11:43:09;;;;;;;7.72;4.30;;;;;;;3.53;44.76;100733.92;1647996;87;21608;-89